Time;durP1;ratioP1;P1;durP2;ratioP2;P2;SDS_P1;SDS_P2;PMS_P1;PMS_P2;Temp;Humidity;BMP_temperature;BMP_pressure;BME280_temperature;BME280_humidity;BME280_pressure;Samples;Min_cycle;Max_cycle;Signal;HPM_P1;HPM_P2
2023/04/24 00:02:17;;;;;;;0.40;0.40;;;;;;;9.78;100.00;99685.53;4998183;28;20046;-73
2023/04/24 00:04:44;;;;;;;2.47;0.90;;;;;;;9.70;100.00;99700.81;4990518;28;20116;-77
2023/04/24 00:07:12;;;;;;;1.95;0.52;;;;;;;9.80;100.00;99672.00;4998392;28;20046;-74
2023/04/24 00:09:39;;;;;;;0.40;0.40;;;;;;;9.76;100.00;99673.31;4991811;28;20057;-75
2023/04/24 00:12:06;;;;;;;0.93;0.82;;;;;;;9.71;100.00;99676.63;4989526;28;20573;-76
2023/04/24 00:14:32;;;;;;;4.00;1.05;;;;;;;9.87;100.00;99676.59;4995058;28;20069;-74
2023/04/24 00:16:59;;;;;;;3.50;0.88;;;;;;;9.78;100.00;99659.78;4989947;28;20073;-75
2023/04/24 00:19:26;;;;;;;1.23;0.85;;;;;;;9.80;100.00;99657.34;4989981;28;20101;-77
2023/04/24 00:21:53;;;;;;;2.35;0.75;;;;;;;9.75;100.00;99677.28;4988574;28;20093;-76
2023/04/24 00:24:20;;;;;;;0.55;0.55;;;;;;;9.87;100.00;99673.81;4989898;28;20527;-74
2023/04/24 00:26:47;;;;;;;0.90;0.70;;;;;;;9.81;100.00;99670.00;4990958;28;20049;-75
2023/04/24 00:29:13;;;;;;;0.77;0.43;;;;;;;9.88;100.00;99669.81;4996596;28;20060;-75
2023/04/24 00:31:40;;;;;;;0.77;0.77;;;;;;;9.89;100.00;99676.91;4993237;28;20520;-76
2023/04/24 00:34:07;;;;;;;0.40;0.40;;;;;;;9.83;100.00;99665.56;4989601;28;20074;-77
2023/04/24 00:36:34;;;;;;;4.28;1.50;;;;;;;9.90;100.00;99667.38;4990798;28;20065;-75
2023/04/24 00:39:00;;;;;;;3.83;1.20;;;;;;;9.77;100.00;99675.66;4989771;28;20054;-75
2023/04/24 00:41:27;;;;;;;2.67;1.58;;;;;;;9.79;100.00;99672.44;4991671;28;20140;-78
2023/04/24 00:43:53;;;;;;;2.33;1.02;;;;;;;9.86;100.00;99678.56;5002505;28;20064;-75
2023/04/24 00:46:21;;;;;;;2.83;1.13;;;;;;;9.78;100.00;99654.22;4993416;28;20130;-75
2023/04/24 00:48:48;;;;;;;1.90;1.20;;;;;;;9.77;100.00;99667.34;4996696;28;20333;-75
2023/04/24 00:51:14;;;;;;;5.03;1.90;;;;;;;9.71;100.00;99677.41;4994066;28;20046;-75
2023/04/24 00:53:41;;;;;;;0.93;0.70;;;;;;;9.77;100.00;99661.78;4989140;28;20061;-75
2023/04/24 00:56:07;;;;;;;2.25;1.40;;;;;;;9.74;100.00;99678.53;4989770;28;20050;-75
2023/04/24 00:58:34;;;;;;;0.95;0.75;;;;;;;9.82;100.00;99674.31;4989568;28;20046;-74
2023/04/24 01:01:02;;;;;;;1.67;0.85;;;;;;;9.71;100.00;99685.72;4996563;28;20054;-77
2023/04/24 01:03:31;;;;;;;0.88;0.82;;;;;;;9.66;100.00;99666.06;4993975;28;20084;-75
2023/04/24 01:05:58;;;;;;;2.15;1.00;;;;;;;9.60;100.00;99670.56;4998988;28;20136;-75
2023/04/24 01:08:27;;;;;;;3.35;1.75;;;;;;;9.67;100.00;99670.38;5007425;28;20052;-74
2023/04/24 01:10:56;;;;;;;4.20;1.10;;;;;;;9.42;100.00;99662.69;4998155;28;20796;-74
2023/04/24 01:13:23;;;;;;;1.80;1.13;;;;;;;9.48;100.00;99676.81;4990698;28;20068;-75
2023/04/24 01:15:50;;;;;;;2.20;1.23;;;;;;;9.36;100.00;99683.84;5002904;28;20050;-74
2023/04/24 01:18:16;;;;;;;1.65;1.15;;;;;;;9.28;100.00;99687.22;4995379;28;20042;-75
2023/04/24 01:20:45;;;;;;;5.72;1.92;;;;;;;9.16;100.00;99669.28;4996138;28;20054;-75
2023/04/24 01:23:11;;;;;;;1.85;0.77;;;;;;;9.25;100.00;99671.47;4999866;28;20501;-76
2023/04/24 01:25:39;;;;;;;0.88;0.85;;;;;;;9.26;100.00;99673.78;4989135;28;20115;-75
2023/04/24 01:28:05;;;;;;;2.22;1.25;;;;;;;9.20;100.00;99671.97;4989442;28;20665;-76
2023/04/24 01:30:33;;;;;;;2.67;1.50;;;;;;;9.07;100.00;99671.09;4993756;28;20057;-74
2023/04/24 01:33:00;;;;;;;4.15;1.08;;;;;;;9.14;100.00;99673.69;4993663;28;20150;-74
2023/04/24 01:35:27;;;;;;;4.80;1.48;;;;;;;9.02;100.00;99688.25;4988758;28;20497;-74
2023/04/24 01:37:54;;;;;;;5.20;2.90;;;;;;;9.07;100.00;99666.34;4988553;28;20105;-74
2023/04/24 01:40:21;;;;;;;2.88;1.58;;;;;;;8.97;100.00;99672.91;4992721;28;20142;-76
2023/04/24 01:42:47;;;;;;;5.57;2.47;;;;;;;8.82;100.00;99681.97;4987719;28;20046;-75
2023/04/24 01:45:14;;;;;;;5.75;2.25;;;;;;;8.86;100.00;99688.22;4992102;28;20049;-75
2023/04/24 01:47:41;;;;;;;8.45;2.90;;;;;;;8.81;100.00;99674.88;4987922;28;20053;-75
2023/04/24 01:50:08;;;;;;;6.47;2.97;;;;;;;8.83;100.00;99684.31;4988777;28;20042;-75
2023/04/24 01:52:35;;;;;;;8.40;2.90;;;;;;;8.65;100.00;99689.47;4988245;28;20673;-73
2023/04/24 01:55:03;;;;;;;11.40;5.18;;;;;;;8.55;100.00;99687.69;4993006;28;20058;-75
2023/04/24 01:57:31;;;;;;;11.13;4.07;;;;;;;8.57;100.00;99678.94;4988344;28;20134;-73
2023/04/24 01:59:57;;;;;;;9.70;4.03;;;;;;;8.53;100.00;99681.00;4987946;28;20042;-73
2023/04/24 02:02:27;;;;;;;8.98;3.17;;;;;;;8.54;100.00;99682.59;4990640;28;20043;-73
2023/04/24 02:04:54;;;;;;;7.43;2.75;;;;;;;8.50;100.00;99679.88;4990609;28;20058;-73
2023/04/24 02:07:20;;;;;;;6.65;3.33;;;;;;;8.63;100.00;99683.59;4995360;28;20053;-71
2023/04/24 02:09:47;;;;;;;11.05;4.20;;;;;;;8.54;100.00;99683.34;4990973;28;20042;-72
2023/04/24 02:12:15;;;;;;;2.72;1.25;;;;;;;8.49;100.00;99691.38;4987909;28;20061;-73
2023/04/24 02:14:42;;;;;;;2.10;1.58;;;;;;;8.45;100.00;99685.13;4990542;28;20050;-74
2023/04/24 02:17:09;;;;;;;7.18;3.33;;;;;;;8.36;100.00;99699.56;4991025;28;20050;-73
2023/04/24 02:19:35;;;;;;;7.60;2.17;;;;;;;8.33;100.00;99689.34;4998902;28;20056;-75
2023/04/24 02:22:02;;;;;;;4.32;2.10;;;;;;;8.40;100.00;99693.94;4994471;28;20057;-73
2023/04/24 02:24:28;;;;;;;7.90;3.20;;;;;;;8.30;100.00;99700.50;5003056;28;20050;-73
2023/04/24 02:26:55;;;;;;;4.22;2.13;;;;;;;8.35;100.00;99695.22;4991053;28;20070;-73
2023/04/24 02:29:22;;;;;;;8.20;2.65;;;;;;;8.32;100.00;99687.78;4993512;28;20129;-73
2023/04/24 02:31:49;;;;;;;7.53;3.42;;;;;;;8.22;100.00;99699.06;4987999;28;20050;-73
2023/04/24 02:34:16;;;;;;;3.20;1.40;;;;;;;8.28;100.00;99697.34;4989428;28;20042;-73
2023/04/24 02:36:42;;;;;;;8.63;3.78;;;;;;;8.20;100.00;99684.88;4992154;28;20132;-73
2023/04/24 02:39:09;;;;;;;10.60;4.63;;;;;;;8.18;100.00;99692.81;5000518;28;20497;-73
2023/04/24 02:41:35;;;;;;;11.27;4.45;;;;;;;8.21;100.00;99700.28;4990940;28;20050;-73
2023/04/24 02:44:02;;;;;;;11.60;4.35;;;;;;;8.09;100.00;99693.38;5000022;28;20054;-72
2023/04/24 02:46:28;;;;;;;11.27;3.75;;;;;;;8.18;100.00;99690.84;4991728;28;20455;-75
2023/04/24 02:48:55;;;;;;;7.95;3.47;;;;;;;8.20;100.00;99693.19;4994145;28;20057;-73
2023/04/24 02:51:21;;;;;;;7.72;3.08;;;;;;;8.23;100.00;99695.06;4995289;28;20141;-72
2023/04/24 02:53:48;;;;;;;10.73;4.28;;;;;;;8.09;100.00;99698.91;4991398;28;20539;-76
2023/04/24 02:56:14;;;;;;;9.60;4.28;;;;;;;8.05;100.00;99702.94;4991675;28;20477;-75
2023/04/24 02:58:42;;;;;;;18.17;7.53;;;;;;;7.99;100.00;99701.88;4992666;28;20061;-74
2023/04/24 03:01:09;;;;;;;13.45;5.68;;;;;;;8.06;100.00;99701.72;4991848;28;20085;-73
2023/04/24 03:03:37;;;;;;;15.23;6.75;;;;;;;7.97;100.00;99715.38;4994383;28;20124;-72
2023/04/24 03:06:08;;;;;;;6.85;3.13;;;;;;;8.10;100.00;99708.00;4991505;28;20051;-73
2023/04/24 03:08:35;;;;;;;10.95;5.00;;;;;;;8.04;100.00;99710.50;4993960;28;20066;-73
2023/04/24 03:11:01;;;;;;;8.23;3.05;;;;;;;8.15;100.00;99708.28;4990640;28;20129;-74
2023/04/24 03:13:28;;;;;;;16.65;6.05;;;;;;;8.05;100.00;99722.31;4994279;28;20064;-72
2023/04/24 03:15:54;;;;;;;19.48;8.30;;;;;;;7.98;100.00;99714.16;4998648;28;20073;-73
2023/04/24 03:18:21;;;;;;;5.05;2.60;;;;;;;8.06;100.00;99721.13;4990987;28;20133;-72
2023/04/24 03:20:47;;;;;;;12.60;4.45;;;;;;;8.08;100.00;99719.50;4994674;28;20051;-73
2023/04/24 03:23:15;;;;;;;14.77;4.80;;;;;;;8.06;100.00;99721.91;4991325;28;20065;-73
2023/04/24 03:25:42;;;;;;;15.38;6.00;;;;;;;8.03;100.00;99719.22;4999873;28;20061;-73
2023/04/24 03:28:09;;;;;;;15.27;5.38;;;;;;;8.05;100.00;99714.03;5009684;28;20078;-73
2023/04/24 03:30:35;;;;;;;19.90;8.55;;;;;;;7.96;100.00;99722.88;5009341;28;20049;-73
2023/04/24 03:33:02;;;;;;;17.73;8.50;;;;;;;8.03;100.00;99727.53;4991330;28;20054;-72
2023/04/24 03:35:28;;;;;;;18.17;7.68;;;;;;;8.02;100.00;99717.63;4992167;28;20050;-73
2023/04/24 03:37:55;;;;;;;17.65;7.38;;;;;;;8.04;100.00;99718.00;4990401;28;20535;-73
2023/04/24 03:40:21;;;;;;;16.88;7.72;;;;;;;8.02;100.00;99712.88;5001025;28;20034;-75
2023/04/24 03:42:48;;;;;;;17.55;6.78;;;;;;;8.13;100.00;99718.25;5005198;28;20061;-75
2023/04/24 03:45:14;;;;;;;12.20;3.08;;;;;;;8.16;100.00;99722.91;4992756;28;20046;-73
2023/04/24 03:47:41;;;;;;;14.25;4.10;;;;;;;8.22;100.00;99710.91;4998589;28;20052;-75
2023/04/24 03:50:08;;;;;;;21.83;8.65;;;;;;;8.05;100.00;99723.13;5008157;28;20050;-75
2023/04/24 03:52:37;;;;;;;7.10;2.63;;;;;;;8.21;100.00;99714.13;4994557;28;20408;-74
2023/04/24 03:55:03;;;;;;;12.10;5.75;;;;;;;8.17;100.00;99722.47;4990726;28;20042;-74
2023/04/24 03:57:30;;;;;;;19.00;7.97;;;;;;;8.08;100.00;99710.41;4990810;28;20054;-73
2023/04/24 03:59:56;;;;;;;22.23;8.43;;;;;;;8.12;100.00;99716.66;4990632;28;20091;-75
2023/04/24 04:02:23;;;;;;;14.40;6.47;;;;;;;8.21;100.00;99725.19;4994239;28;20045;-76
2023/04/24 04:04:50;;;;;;;18.42;8.52;;;;;;;8.11;100.00;99718.66;4991947;28;20046;-73
2023/04/24 04:07:19;;;;;;;12.98;4.90;;;;;;;8.15;100.00;99732.41;4990633;28;20105;-73
2023/04/24 04:09:45;;;;;;;14.32;5.40;;;;;;;8.24;100.00;99707.72;4989746;28;20049;-74
2023/04/24 04:12:12;;;;;;;21.40;7.63;;;;;;;8.13;100.00;99719.00;4990221;28;20136;-75
2023/04/24 04:14:39;;;;;;;15.98;7.22;;;;;;;8.19;100.00;99728.38;4990991;28;20054;-74
2023/04/24 04:17:05;;;;;;;7.93;4.00;;;;;;;8.15;100.00;99732.41;4997779;28;20080;-75
2023/04/24 04:19:32;;;;;;;11.75;5.35;;;;;;;8.23;100.00;99726.31;4990741;28;20060;-73
2023/04/24 04:21:58;;;;;;;20.83;8.93;;;;;;;8.20;100.00;99735.47;4988489;28;20042;-73
2023/04/24 04:24:26;;;;;;;6.85;3.10;;;;;;;8.24;100.00;99724.34;4992313;28;20065;-73
2023/04/24 04:26:56;;;;;;;26.33;11.48;;;;;;;8.17;100.00;99746.63;5000494;28;20056;-74
2023/04/24 04:29:23;;;;;;;17.95;7.82;;;;;;;8.21;100.00;99741.81;4995414;28;20049;-75
2023/04/24 04:31:50;;;;;;;22.27;10.07;;;;;;;8.36;100.00;99735.56;4994700;28;20509;-76
2023/04/24 04:34:17;;;;;;;21.48;7.55;;;;;;;8.22;100.00;99735.06;4990105;28;20046;-73
2023/04/24 04:36:44;;;;;;;15.18;6.53;;;;;;;8.23;100.00;99742.13;5001117;28;20047;-74
2023/04/24 04:39:10;;;;;;;14.60;6.25;;;;;;;8.31;100.00;99738.81;4989525;28;20461;-74
2023/04/24 04:41:40;;;;;;;21.25;8.05;;;;;;;8.31;100.00;99736.03;4989644;28;20072;-73
2023/04/24 04:44:08;;;;;;;13.45;5.93;;;;;;;8.29;100.00;99737.69;4994620;28;20058;-73
2023/04/24 04:46:37;;;;;;;16.40;5.85;;;;;;;8.30;100.00;99758.66;4992726;28;20050;-74
2023/04/24 04:49:04;;;;;;;18.75;8.05;;;;;;;8.21;100.00;99752.88;4999565;28;20517;-74
2023/04/24 04:51:31;;;;;;;20.25;7.10;;;;;;;8.31;100.00;99757.44;4991963;28;20425;-74
2023/04/24 04:53:58;;;;;;;24.00;6.50;;;;;;;8.27;100.00;99749.19;4989583;28;20062;-74
2023/04/24 04:56:24;;;;;;;21.75;7.85;;;;;;;8.24;100.00;99746.50;4988236;28;20513;-74
2023/04/24 04:58:51;;;;;;;13.75;6.80;;;;;;;8.26;100.00;99744.06;4996648;28;20593;-73
2023/04/24 05:01:17;;;;;;;19.73;6.15;;;;;;;8.22;100.00;99748.91;4991708;28;20104;-74
2023/04/24 05:03:44;;;;;;;11.23;4.97;;;;;;;8.31;100.00;99749.88;4991962;28;20065;-73
2023/04/24 05:06:11;;;;;;;16.85;7.60;;;;;;;8.18;100.00;99743.44;4988534;28;20505;-73
2023/04/24 05:08:37;;;;;;;18.17;5.95;;;;;;;8.27;100.00;99745.66;4987617;28;20061;-73
2023/04/24 05:11:04;;;;;;;17.85;8.75;;;;;;;8.18;100.00;99751.75;4989296;28;20050;-73
2023/04/24 05:13:31;;;;;;;14.98;6.45;;;;;;;8.37;100.00;99756.50;4990919;28;20050;-75
2023/04/24 05:16:06;;;;;;;16.52;7.60;;;;;;;8.29;100.00;99732.16;4988892;28;20065;-72
2023/04/24 05:18:33;;;;;;;17.65;6.60;;;;;;;8.25;100.00;99746.06;4988966;28;20595;-74
2023/04/24 05:20:59;;;;;;;12.25;5.95;;;;;;;8.24;100.00;99741.72;4990454;28;20050;-74
2023/04/24 05:23:26;;;;;;;15.25;6.18;;;;;;;8.27;100.00;99745.66;4997921;28;20054;-74
2023/04/24 05:25:52;;;;;;;15.10;6.00;;;;;;;8.33;100.00;99752.22;4997933;28;20475;-74
2023/04/24 05:28:19;;;;;;;14.45;6.15;;;;;;;8.42;100.00;99746.91;4995472;28;20058;-75
2023/04/24 05:30:46;;;;;;;19.88;7.78;;;;;;;8.26;100.00;99769.00;4992508;28;20050;-74
2023/04/24 05:33:13;;;;;;;18.55;8.10;;;;;;;8.27;100.00;99745.66;4993875;28;21836;-74
2023/04/24 05:35:45;;;;;;;11.30;4.85;;;;;;;8.32;100.00;99745.94;4998455;28;20145;-74
2023/04/24 05:38:12;;;;;;;16.00;6.90;;;;;;;8.21;100.00;99745.38;4990024;28;20065;-76
2023/04/24 05:40:39;;;;;;;16.00;5.60;;;;;;;8.33;100.00;99755.78;4992627;28;20080;-74
2023/04/24 05:43:06;;;;;;;7.10;2.78;;;;;;;8.36;100.00;99757.72;5003394;28;20063;-74
2023/04/24 05:45:35;;;;;;;18.40;8.20;;;;;;;8.17;100.00;99752.16;5006479;28;20516;-74
2023/04/24 05:48:02;;;;;;;19.33;7.85;;;;;;;8.10;100.00;99761.38;4988302;28;20042;-74
2023/04/24 05:50:29;;;;;;;18.02;6.50;;;;;;;8.06;100.00;99804.94;4997250;28;20197;-74
2023/04/24 05:52:57;;;;;;;18.17;7.50;;;;;;;7.95;100.00;99781.44;4990598;28;20048;-75
2023/04/24 05:55:25;;;;;;;16.95;8.45;;;;;;;7.67;100.00;99793.78;5000007;28;20057;-75
2023/04/24 05:57:51;;;;;;;14.20;5.13;;;;;;;7.62;100.00;99791.47;5000496;28;20045;-74
2023/04/24 06:00:19;;;;;;;10.07;4.15;;;;;;;7.59;100.00;99772.94;4998463;28;20054;-74
2023/04/24 06:02:46;;;;;;;21.23;8.57;;;;;;;7.33;100.00;99787.59;5002631;28;20049;-73
2023/04/24 06:05:14;;;;;;;14.68;6.05;;;;;;;7.44;100.00;99788.97;5004868;28;20046;-74
2023/04/24 06:07:41;;;;;;;15.13;4.43;;;;;;;7.43;100.00;99776.34;4988663;28;20062;-74
2023/04/24 06:10:09;;;;;;;12.50;5.10;;;;;;;7.36;100.00;99768.16;4987375;28;20069;-74
2023/04/24 06:12:36;;;;;;;16.45;7.05;;;;;;;7.35;100.00;99769.38;4987932;28;20400;-75
2023/04/24 06:15:03;;;;;;;13.98;4.93;;;;;;;7.41;100.00;99772.44;4990969;28;20050;-74
2023/04/24 06:17:30;;;;;;;11.98;4.10;;;;;;;7.41;100.00;99775.19;4988149;28;20077;-74
2023/04/24 06:19:57;;;;;;;21.95;11.43;;;;;;;7.23;100.00;99785.75;4988118;28;20485;-75
2023/04/24 06:22:23;;;;;;;13.10;5.97;;;;;;;7.43;100.00;99776.34;5001730;28;20078;-74
2023/04/24 06:24:50;;;;;;;10.15;4.53;;;;;;;7.53;100.00;99760.78;4993471;28;20057;-74
2023/04/24 06:27:16;;;;;;;8.85;4.70;;;;;;;7.55;100.00;99769.44;4992960;28;20050;-74
2023/04/24 06:29:43;;;;;;;12.05;5.72;;;;;;;7.59;100.00;99772.16;4989538;28;20093;-74
2023/04/24 06:32:10;;;;;;;9.88;4.82;;;;;;;7.66;100.00;99781.13;4987430;28;20497;-74
2023/04/24 06:34:36;;;;;;;10.23;3.97;;;;;;;7.61;100.00;99773.31;4992434;28;20137;-73
2023/04/24 06:37:03;;;;;;;10.50;3.42;;;;;;;7.71;100.00;99780.66;4995483;28;20054;-74
2023/04/24 06:39:29;;;;;;;16.08;6.45;;;;;;;7.58;100.00;99779.69;4987932;28;20046;-73
2023/04/24 06:41:55;;;;;;;16.33;5.28;;;;;;;7.68;100.00;99786.22;4987802;28;20057;-74
2023/04/24 06:44:22;;;;;;;10.40;4.00;;;;;;;7.69;100.00;99774.75;4993925;28;20134;-74
2023/04/24 06:46:48;;;;;;;16.52;6.35;;;;;;;7.53;100.00;99775.41;4991072;28;20054;-74
2023/04/24 06:49:15;;;;;;;20.55;4.82;;;;;;;7.52;100.00;99776.59;4989005;28;20057;-72
2023/04/24 06:51:42;;;;;;;18.48;7.45;;;;;;;7.41;100.00;99778.75;4995029;28;20062;-75
2023/04/24 06:54:09;;;;;;;18.80;7.80;;;;;;;7.33;100.00;99782.81;4994918;28;20050;-73
2023/04/24 06:56:35;;;;;;;16.05;5.32;;;;;;;7.36;100.00;99776.44;4992081;28;20558;-73
2023/04/24 06:59:02;;;;;;;6.18;2.90;;;;;;;7.44;100.00;99783.44;5002891;28;20640;-75
2023/04/24 07:01:28;;;;;;;15.90;6.05;;;;;;;7.36;100.00;99775.66;4992473;28;20157;-74
2023/04/24 07:03:55;;;;;;;9.27;3.50;;;;;;;7.31;100.00;99778.91;4990716;28;20073;-74
2023/04/24 07:06:24;;;;;;;16.77;7.50;;;;;;;7.27;100.00;99792.00;4987583;28;20096;-74
2023/04/24 07:08:50;;;;;;;10.75;4.30;;;;;;;7.36;100.00;99770.94;4987837;28;20050;-74
2023/04/24 07:11:17;;;;;;;13.35;5.07;;;;;;;7.43;100.00;99764.53;4987785;28;20050;-74
2023/04/24 07:13:44;;;;;;;11.45;3.80;;;;;;;7.47;100.00;99756.94;4990113;28;20058;-74
2023/04/24 07:16:10;;;;;;;10.35;4.00;;;;;;;7.48;100.00;99764.81;4986086;28;20089;-73
2023/04/24 07:18:39;;;;;;;11.85;4.65;;;;;;;7.54;100.00;99765.88;4987634;28;20058;-74
2023/04/24 07:21:07;;;;;;;9.75;4.00;;;;;;;7.49;100.00;99771.13;4996758;28;20046;-74
2023/04/24 07:23:33;;;;;;;5.07;2.15;;;;;;;7.58;100.00;99779.69;5004990;28;20070;-73
2023/04/24 07:26:00;;;;;;;11.23;4.45;;;;;;;7.49;100.00;99782.97;4999234;28;20579;-74
2023/04/24 07:28:26;;;;;;;12.90;5.30;;;;;;;7.57;100.00;99776.13;4996025;28;20076;-73
2023/04/24 07:30:53;;;;;;;10.05;4.28;;;;;;;7.39;100.00;99789.44;4998643;28;20134;-73
2023/04/24 07:33:20;;;;;;;14.77;5.32;;;;;;;7.43;100.00;99776.34;4989133;28;20164;-73
2023/04/24 07:35:47;;;;;;;9.13;3.47;;;;;;;7.44;100.00;99779.91;4992394;28;20053;-75
2023/04/24 07:38:14;;;;;;;8.80;3.60;;;;;;;7.47;100.00;99777.06;5001225;28;20054;-74
2023/04/24 07:40:40;;;;;;;9.27;3.42;;;;;;;7.49;100.00;99779.41;4992311;28;20557;-74
2023/04/24 07:43:07;;;;;;;5.80;2.90;;;;;;;7.50;100.00;99779.00;4990884;28;20046;-75
2023/04/24 07:45:36;;;;;;;12.90;4.00;;;;;;;7.47;100.00;99801.97;4994114;28;20058;-76
2023/04/24 07:48:03;;;;;;;7.78;3.47;;;;;;;7.56;100.00;99775.78;4990053;28;20086;-72
2023/04/24 07:50:30;;;;;;;4.00;2.33;;;;;;;7.69;100.00;99793.34;4990745;28;20517;-75
2023/04/24 07:52:57;;;;;;;11.68;3.80;;;;;;;7.57;100.00;99789.19;4990084;28;20419;-77
2023/04/24 07:55:23;;;;;;;5.45;2.17;;;;;;;7.76;100.00;99785.69;4997178;28;20150;-75
2023/04/24 07:57:53;;;;;;;5.13;2.15;;;;;;;7.75;100.00;99800.75;4996314;28;20057;-74
2023/04/24 08:00:20;;;;;;;8.70;3.38;;;;;;;7.71;100.00;99800.03;4991171;28;20515;-74
2023/04/24 08:02:47;;;;;;;2.85;1.75;;;;;;;7.78;100.00;99786.06;4991108;28;20050;-74
2023/04/24 08:05:14;;;;;;;4.00;1.25;;;;;;;7.75;100.00;99794.41;4990698;28;20050;-73
2023/04/24 08:07:42;;;;;;;4.60;2.17;;;;;;;7.80;100.00;99810.56;4998500;28;20116;-75
2023/04/24 08:10:11;;;;;;;4.18;1.85;;;;;;;7.71;100.00;99796.47;4995924;28;20058;-75
2023/04/24 08:12:38;;;;;;;2.53;1.42;;;;;;;7.78;100.00;99793.56;4993894;28;20061;-73
2023/04/24 08:15:05;;;;;;;3.53;1.73;;;;;;;7.43;100.00;99823.34;4993315;28;20089;-74
2023/04/24 08:17:34;;;;;;;2.63;1.75;;;;;;;7.48;100.00;99811.84;4995665;28;20054;-73
2023/04/24 08:20:05;;;;;;;3.70;1.50;;;;;;;7.25;100.00;99820.06;4989371;28;20057;-77
2023/04/24 08:22:31;;;;;;;4.13;1.92;;;;;;;7.24;100.00;99818.50;4990120;28;20077;-73
2023/04/24 08:25:00;;;;;;;2.25;1.40;;;;;;;7.12;100.00;99826.56;4988354;28;20577;-73
2023/04/24 08:27:27;;;;;;;4.88;1.65;;;;;;;6.96;100.00;99829.13;4989985;28;20077;-76
2023/04/24 08:29:54;;;;;;;3.75;1.45;;;;;;;6.93;100.00;99833.47;4989727;28;20156;-74
2023/04/24 08:32:21;;;;;;;3.88;1.10;;;;;;;6.87;100.00;99842.66;4998961;28;20153;-75
2023/04/24 08:34:47;;;;;;;3.00;1.58;;;;;;;6.82;100.00;99837.59;4992278;28;20054;-73
2023/04/24 08:37:15;;;;;;;1.92;1.35;;;;;;;6.85;100.00;99850.56;5000783;28;20053;-73
2023/04/24 08:39:42;;;;;;;2.70;2.00;;;;;;;6.56;100.00;99857.63;4993552;28;20058;-73
2023/04/24 08:42:09;;;;;;;1.90;1.35;;;;;;;6.62;100.00;99856.75;4992365;28;20569;-72
2023/04/24 08:44:36;;;;;;;1.55;1.00;;;;;;;6.57;100.00;99865.50;5001579;28;20517;-74
2023/04/24 08:47:03;;;;;;;0.98;0.73;;;;;;;6.61;100.00;99857.16;4998120;28;20505;-72
2023/04/24 08:49:30;;;;;;;1.77;1.05;;;;;;;6.64;100.00;99861.84;4998739;28;20060;-73
2023/04/24 08:51:57;;;;;;;3.92;2.05;;;;;;;6.49;100.00;99883.31;4991035;28;20129;-74
2023/04/24 08:54:25;;;;;;;2.72;1.52;;;;;;;6.58;100.00;99858.78;5000480;28;20051;-74
2023/04/24 08:56:54;;;;;;;3.08;1.50;;;;;;;6.53;100.00;99875.81;4995647;28;20592;-74
2023/04/24 08:59:21;;;;;;;2.75;1.85;;;;;;;6.51;100.00;99871.84;5001805;28;20086;-72
2023/04/24 09:01:49;;;;;;;2.63;1.83;;;;;;;6.58;100.00;99871.78;4997610;28;20052;-72
2023/04/24 09:04:19;;;;;;;2.10;1.23;;;;;;;6.58;100.00;99885.59;4991231;28;20050;-76
2023/04/24 09:06:48;;;;;;;4.70;2.05;;;;;;;6.59;100.00;99887.19;5000382;28;20108;-76
2023/04/24 09:09:16;;;;;;;4.97;2.75;;;;;;;6.53;100.00;99899.84;4996009;28;20050;-74
2023/04/24 09:11:44;;;;;;;6.80;2.42;;;;;;;6.62;100.00;99909.22;4996294;28;20228;-74
2023/04/24 09:14:11;;;;;;;2.88;1.58;;;;;;;6.66;100.00;99909.97;5002506;28;20072;-75
2023/04/24 09:16:37;;;;;;;11.65;5.05;;;;;;;6.79;100.00;99913.78;4993084;28;20053;-74
2023/04/24 09:19:04;;;;;;;11.10;4.13;;;;;;;6.78;100.00;99920.50;5003805;28;20105;-76
2023/04/24 09:21:34;;;;;;;11.48;5.38;;;;;;;6.90;100.00;99933.81;4995162;28;20057;-74
2023/04/24 09:24:03;;;;;;;10.45;4.95;;;;;;;6.89;100.00;99945.28;4989218;28;20076;-75
2023/04/24 09:26:32;;;;;;;3.13;1.35;;;;;;;7.00;100.00;99943.94;4996820;28;20068;-75
2023/04/24 09:28:59;;;;;;;1.88;1.30;;;;;;;7.06;100.00;99960.91;4995839;28;20060;-76
2023/04/24 09:31:28;;;;;;;4.78;2.15;;;;;;;7.20;100.00;99958.75;5000017;28;20213;-74
2023/04/24 09:34:05;;;;;;;2.38;1.40;;;;;;;7.19;100.00;99965.47;4994197;28;20049;-75
2023/04/24 09:36:38;;;;;;;6.00;2.55;;;;;;;7.32;100.00;99966.50;4996965;28;20058;-75
2023/04/24 09:39:15;;;;;;;4.40;2.25;;;;;;;7.39;100.00;99973.94;4995283;28;20054;-78
2023/04/24 09:41:56;;;;;;;2.13;1.38;;;;;;;7.39;100.00;99980.25;4995291;28;20520;-75
2023/04/24 09:44:25;;;;;;;4.35;1.95;;;;;;;7.46;100.00;99990.44;4998157;28;20084;-74
2023/04/24 09:47:00;;;;;;;2.20;1.52;;;;;;;7.43;100.00;99992.03;4994711;28;20061;-73
2023/04/24 09:49:28;;;;;;;2.40;1.13;;;;;;;7.35;100.00;100001.63;4994491;28;20050;-76
2023/04/24 09:52:06;;;;;;;2.20;1.25;;;;;;;7.37;100.00;100007.53;4996422;28;20057;-78
2023/04/24 09:54:33;;;;;;;3.00;1.45;;;;;;;7.25;100.00;100019.13;4996514;28;20428;-76
2023/04/24 09:57:00;;;;;;;5.82;1.98;;;;;;;7.32;100.00;100035.63;4994211;28;20049;-75
2023/04/24 09:59:27;;;;;;;10.20;3.33;;;;;;;7.34;100.00;100049.84;4995942;28;20054;-76
2023/04/24 10:01:54;;;;;;;6.85;3.28;;;;;;;7.26;100.00;100050.34;4995765;28;20050;-75
2023/04/24 10:04:24;;;;;;;4.05;2.08;;;;;;;7.24;100.00;100055.47;4994038;28;20119;-74
2023/04/24 10:06:52;;;;;;;9.48;2.30;;;;;;;7.11;100.00;100068.25;4992364;28;20532;-75
2023/04/24 10:09:21;;;;;;;14.02;4.72;;;;;;;7.23;100.00;100076.81;4994727;28;20572;-75
2023/04/24 10:11:50;;;;;;;5.95;2.33;;;;;;;7.12;100.00;100084.41;4995970;28;20060;-76
2023/04/24 10:14:20;;;;;;;7.88;2.22;;;;;;;7.08;100.00;100083.66;4996454;28;20060;-74
2023/04/24 10:16:47;;;;;;;11.02;4.72;;;;;;;7.07;100.00;100092.38;4991251;28;20524;-75
2023/04/24 10:19:15;;;;;;;7.43;3.30;;;;;;;6.91;100.00;100112.22;4992245;28;20050;-75
2023/04/24 10:21:46;;;;;;;11.63;4.63;;;;;;;7.11;100.00;100098.66;4987776;28;20054;-76
2023/04/24 10:24:17;;;;;;;14.57;5.28;;;;;;;7.19;100.00;100114.75;4988145;28;20050;-75
2023/04/24 10:26:45;;;;;;;8.73;2.83;;;;;;;7.00;100.00;100118.03;4990911;28;20100;-74
2023/04/24 10:29:15;;;;;;;16.40;6.05;;;;;;;7.11;100.00;100129.06;4995051;28;20635;-74
2023/04/24 10:31:45;;;;;;;11.27;4.80;;;;;;;7.09;100.00;100131.44;4988038;28;20081;-75
2023/04/24 10:34:14;;;;;;;11.25;4.32;;;;;;;7.15;100.00;100141.66;4997183;28;20464;-76
2023/04/24 10:36:45;;;;;;;5.30;2.45;;;;;;;7.02;100.00;100137.78;4996022;28;20133;-75
2023/04/24 10:39:14;;;;;;;5.13;2.40;;;;;;;7.09;100.00;100140.50;4995809;28;20054;-75
2023/04/24 10:41:41;;;;;;;14.10;4.97;;;;;;;7.14;100.00;100151.16;4996575;28;20056;-74
2023/04/24 10:44:13;;;;;;;13.98;5.95;;;;;;;7.15;100.00;100149.16;4994329;28;20050;-76
2023/04/24 10:46:44;;;;;;;8.43;3.63;;;;;;;7.10;100.00;100166.19;4990861;28;21915;-76
2023/04/24 10:49:11;;;;;;;15.18;6.40;;;;;;;7.16;100.00;100159.81;4994129;28;20054;-75
2023/04/24 10:51:49;;;;;;;12.75;5.38;;;;;;;7.29;100.00;100185.75;4993836;28;20597;-75
2023/04/24 10:54:25;;;;;;;19.90;7.10;;;;;;;7.30;100.00;100179.03;4996006;28;20054;-75
2023/04/24 10:56:52;;;;;;;18.83;7.32;;;;;;;7.34;100.00;100185.34;5010488;28;20076;-75
2023/04/24 10:59:35;;;;;;;9.55;3.47;;;;;;;7.28;100.00;100195.25;4996817;28;20144;-75
2023/04/24 11:02:01;;;;;;;15.82;5.65;;;;;;;7.37;100.00;100178.19;4998921;28;20054;-77
2023/04/24 11:04:33;;;;;;;10.18;3.88;;;;;;;7.29;100.00;100191.28;4999290;28;20521;-75
2023/04/24 11:06:59;;;;;;;7.15;2.88;;;;;;;7.29;100.00;100199.59;4991116;28;20054;-77
2023/04/24 11:09:29;;;;;;;16.42;5.45;;;;;;;7.30;100.00;100192.84;4999933;28;20121;-75
2023/04/24 11:12:10;;;;;;;20.92;6.13;;;;;;;7.37;100.00;100209.38;5000300;28;20057;-75
2023/04/24 11:14:56;;;;;;;17.35;6.28;;;;;;;7.41;100.00;100203.84;5008920;28;20481;-74
2023/04/24 11:17:34;;;;;;;13.35;6.22;;;;;;;7.33;100.00;100218.94;4997009;28;20512;-74
2023/04/24 11:20:11;;;;;;;16.58;5.60;;;;;;;7.28;100.00;100206.31;4990828;28;20793;-73
2023/04/24 11:22:54;;;;;;;17.60;5.85;;;;;;;7.29;100.00;100221.72;4991899;28;20051;-75
2023/04/24 11:25:25;;;;;;;21.33;6.95;;;;;;;7.36;100.00;100221.66;4992802;28;20050;-75
2023/04/24 11:28:03;;;;;;;20.35;7.40;;;;;;;7.50;100.00;100224.28;4991098;28;20057;-76
2023/04/24 11:30:31;;;;;;;10.93;3.13;;;;;;;7.44;100.00;100234.22;4997347;28;20449;-75
2023/04/24 11:33:03;;;;;;;16.73;4.60;;;;;;;7.60;100.00;100232.91;4992124;28;20050;-75